METAR Reports From Nearby Airports

 

KLUD - Decatur, Texas, USA
Distance from Wildwood: WsPdWs 5mi, 8km
Aktualizacja: Jul 15, 2020 10:55pm
Bezchmurnie
Bezchmurnie
 Wiatr z PdWs
Wiatr: PdWs 5 mph , 7 km/h
Temperatura: 84°F , 29°C
Heat Index: 88°F , 31°C
Punkt Rosy: 70°F , 21°C
Wilgotność: 62%
Ciśnienie: 29.93 inHg , 1013.5 hPa
Clouds: Bezchmurnie
Visibility: 10 miles , 16 km
2020/07/16 03:55 KLUD 160355Z AUTO 13004KT 10SM CLR 29/21 A2993 RMK AO2 T02860207
KXBP - Bridgeport, Texas, USA
Distance from Wildwood: ZdPdZa 11mi, 18km
Aktualizacja: Jul 15, 2020 10:55pm
Bezchmurnie
Bezchmurnie
 Wiatr z PdWs
Wiatr: PdWs 3 mph , 6 km/h
Temperatura: 81°F , 27°C
Heat Index: 85°F , 29°C
Punkt Rosy: 70°F , 21°C
Wilgotność: 70%
Ciśnienie: 29.93 inHg , 1013.5 hPa
Clouds: Bezchmurnie
Visibility: 10 miles , 16 km
2020/07/16 03:55 KXBP 160355Z AUTO 13003KT 10SM CLR 27/21 A2993 RMK AO2 T02690210
 
K0F2 - Bowie, Texas, USA
Distance from Wildwood: PnPnZd 24mi, 39km
Aktualizacja: Jul 15, 2020 10:55pm
Bezchmurnie
Bezchmurnie
 Wiatr z PdWs
Wiatr: PdWs 3 mph , 6 km/h
Temperatura: 81°F , 27°C
Heat Index: 85°F , 29°C
Punkt Rosy: 72°F , 22°C
Wilgotność: 74%
Ciśnienie: 29.93 inHg , 1013.5 hPa
Clouds: Bezchmurnie
Visibility: 10 miles , 16 km
2020/07/16 03:55 K0F2 160355Z AUTO 13003KT 10SM CLR 27/22 A2993 RMK AO2 T02670215
KDTO - Denton, Texas, USA
Distance from Wildwood: Ws 27mi, 44km
Aktualizacja: Jul 15, 2020 10:53pm
Bezchmurnie
Bezchmurnie
 Wiatr z PdWs
Wiatr: PdWs 7 mph , 11 km/h
Temperatura: 86°F , 30°C
Heat Index: 92°F , 33°C
Punkt Rosy: 72°F , 22°C
Wilgotność: 62%
Ciśnienie: 29.92 inHg , 1013.2 hPa
Clouds: Bezchmurnie
Visibility: 10 miles , 16 km
2020/07/16 03:53 KDTO 160353Z AUTO 14006KT 10SM CLR 30/22 A2992 RMK AO2 SLP120 T03000217
 
KAFW - Ft Worth/Allianc, Texas, USA
Distance from Wildwood: PdWs 29mi, 46km
Aktualizacja: Jul 15, 2020 10:53pm
Bezchmurnie
Bezchmurnie
 Wiatr z PdWs
Wiatr: PdWs 10 mph , 17 km/h
Temperatura: 88°F , 31°C
Heat Index: 95°F , 35°C
Punkt Rosy: 72°F , 22°C
Wilgotność: 59%
Ciśnienie: 29.91 inHg , 1012.9 hPa
Clouds: Bezchmurnie
Visibility: 10 miles , 16 km
2020/07/16 03:53 KAFW 160353Z 14009KT 10SM CLR 31/22 A2991 RMK AO2 SLP113 T03110217
KFTW - Fort Worth, Texas, USA
Distance from Wildwood: PdPdWs 34mi, 55km
Aktualizacja: Jul 15, 2020 11:01pm
unable to load KFTW data RC=
unable to load KFTW data RC=
 
 
KNFW - Fort Worth Nas, Texas, USA
Distance from Wildwood: PdPdWs 36mi, 58km
Aktualizacja: Jul 15, 2020 10:52pm
Few Clouds
Few Clouds
 Wiatr z PdWs
Wiatr: PdWs 12 mph , 19 km/h
Temperatura: 90°F , 32°C
Heat Index: 97°F , 36°C
Punkt Rosy: 72°F , 22°C
Wilgotność: 55%
Ciśnienie: 29.91 inHg , 1012.9 hPa
Clouds: Few Clouds
Visibility: 10 miles , 16 km
Cloud details: Few Clouds 15000 ft
2020/07/16 03:52 KNFW 160352Z 14010KT 10SM FEW150 32/22 A2991 RMK AO2 SLP112 T03170217 VISNO N $
KGLE - Gainesville, Texas, USA
Distance from Wildwood: PnWs 38mi, 61km
Aktualizacja: Jul 15, 2020 10:55pm
Bezchmurnie
Bezchmurnie
 Wiatr z PdPdWs
Wiatr: PdPdWs 6 mph , 9 km/h
Temperatura: 81°F , 27°C
Heat Index: 85°F , 29°C
Punkt Rosy: 72°F , 22°C
Wilgotność: 74%
Ciśnienie: 29.95 inHg , 1014.2 hPa
Clouds: Bezchmurnie
Visibility: 10 miles , 16 km
2020/07/16 03:55 KGLE 160355Z AUTO 16005KT 10SM CLR 27/22 A2995 RMK AO2 T02700215 PWINO
 
KMWL - Mineral Wells, Texas, USA
Distance from Wildwood: PdZd 41mi, 65km
Aktualizacja: Jul 15, 2020 10:53pm
Bezchmurnie
Bezchmurnie
 Wiatr z PdWs
Wiatr: PdWs 8 mph , 13 km/h
Temperatura: 82°F , 28°C
Heat Index: 85°F , 29°C
Punkt Rosy: 68°F , 20°C
Wilgotność: 62%
Ciśnienie: 29.90 inHg , 1012.5 hPa
Clouds: Bezchmurnie
Visibility: 10 miles , 16 km
2020/07/16 03:53 KMWL 160353Z AUTO 14007KT 10SM CLR 28/20 A2990 RMK AO2 SLP108 T02830200
KDFW - Dallas/Ft Worth, Texas, USA
Distance from Wildwood: WsPdWs 45mi, 73km
Aktualizacja: Jul 15, 2020 10:53pm
Bezchmurnie
Bezchmurnie
 Wiatr z PdWs
Wiatr: PdWs 9 mph , 15 km/h
Temperatura: 86°F , 30°C
Heat Index: 95°F , 35°C
Punkt Rosy: 75°F , 24°C
Wilgotność: 70%
Ciśnienie: 29.91 inHg , 1012.9 hPa
Clouds: Bezchmurnie
Visibility: 10 miles , 16 km
2020/07/16 03:53 KDFW 160353Z 14008KT 10SM CLR 30/24 A2991 RMK AO2 SLP117 T03000239